Time;durP1;ratioP1;P1;durP2;ratioP2;P2;SDS_P1;SDS_P2;PMS_P1;PMS_P2;Temp;Humidity;BMP_temperature;BMP_pressure;BME280_temperature;BME280_humidity;BME280_pressure;Samples;Min_cycle;Max_cycle;Signal;HPM_P1;HPM_P2
2023/12/02 00:00:07;;;;;;;2.70;2.50;;;;;;;2.63;nan;-23889.59;4956272;29;20317;-63
2023/12/02 00:02:32;;;;;;;4.77;3.20;;;;;;;2.70;nan;-23891.31;4955461;29;20205;-63
2023/12/02 00:04:58;;;;;;;2.83;2.63;;;;;;;2.62;nan;-23889.31;4955383;29;20182;-66
2023/12/02 00:07:23;;;;;;;3.33;3.03;;;;;;;2.74;nan;-23892.59;4955490;29;20220;-64
2023/12/02 00:09:49;;;;;;;2.60;2.40;;;;;;;2.64;nan;-23889.88;4955393;28;20616;-65
2023/12/02 00:12:14;;;;;;;3.10;2.10;;;;;;;2.65;nan;-23890.16;4955042;29;20186;-64
2023/12/02 00:14:39;;;;;;;3.50;2.97;;;;;;;2.75;nan;-23892.72;4938675;29;20208;-64
2023/12/02 00:17:05;;;;;;;2.23;2.10;;;;;;;2.79;nan;-23894.00;4955336;29;20247;-64
2023/12/02 00:19:30;;;;;;;3.07;2.77;;;;;;;2.56;nan;-23887.59;4955310;29;20233;-66
2023/12/02 00:21:56;;;;;;;3.13;2.60;;;;;;;2.48;nan;-23885.16;4955338;28;20210;-64
2023/12/02 00:24:21;;;;;;;2.07;1.97;;;;;;;2.80;nan;-23894.16;4954976;29;20174;-66
2023/12/02 00:26:47;;;;;;;2.13;2.03;;;;;;;2.85;nan;-23895.72;4954866;29;20189;-64
2023/12/02 00:29:12;;;;;;;5.50;3.73;;;;;;;2.58;nan;-23888.03;4955139;29;20193;-63
2023/12/02 00:31:37;;;;;;;4.20;3.80;;;;;;;2.60;nan;-23888.72;4955226;29;20174;-62
2023/12/02 00:34:03;;;;;;;4.07;2.50;;;;;;;2.19;nan;-23877.03;4955076;29;20189;-64
2023/12/02 00:36:28;;;;;;;3.70;3.37;;;;;;;2.80;nan;-23894.16;4955038;29;20626;-64
2023/12/02 00:38:54;;;;;;;2.70;2.37;;;;;;;2.65;nan;-23890.16;4955035;29;20179;-63
2023/12/02 00:41:19;;;;;;;3.10;2.63;;;;;;;2.85;nan;-23895.59;4954640;29;20702;-62
2023/12/02 00:43:45;;;;;;;5.90;3.13;;;;;;;2.90;nan;-23897.16;4954795;28;20202;-63
2023/12/02 00:46:11;;;;;;;3.73;2.73;;;;;;;2.94;nan;-23898.16;4937873;29;20181;-64
2023/12/02 00:48:37;;;;;;;3.10;2.80;;;;;;;2.35;nan;-23881.47;4954776;29;20646;-62
2023/12/02 00:51:02;;;;;;;2.80;2.57;;;;;;;3.07;nan;-23902.00;4954652;29;20258;-63
2023/12/02 00:53:28;;;;;;;4.23;3.83;;;;;;;3.13;nan;-23903.44;4954174;28;20170;-64
2023/12/02 00:55:53;;;;;;;3.47;3.10;;;;;;;2.95;nan;-23898.44;4954833;29;20194;-62
2023/12/02 00:58:19;;;;;;;2.87;2.67;;;;;;;3.07;nan;-23902.00;4954233;29;20698;-63
2023/12/02 01:00:44;;;;;;;3.10;2.90;;;;;;;3.18;nan;-23904.84;4959668;28;20173;-63
2023/12/02 01:03:09;;;;;;;4.00;3.27;;;;;;;3.17;nan;-23904.56;4974892;28;20257;-64
2023/12/02 01:05:35;;;;;;;3.80;2.90;;;;;;;3.12;nan;-23903.28;4956319;28;20178;-63
2023/12/02 01:08:00;;;;;;;2.80;2.57;;;;;;;2.88;nan;-23896.44;4973908;28;20181;-62
2023/12/02 01:10:26;;;;;;;2.83;2.63;;;;;;;3.20;nan;-23905.56;4973609;28;20181;-64
2023/12/02 01:12:51;;;;;;;2.90;2.67;;;;;;;3.09;nan;-23902.44;4973560;28;20621;-63
2023/12/02 01:15:17;;;;;;;2.73;2.50;;;;;;;2.81;nan;-23894.59;4973616;28;20558;-64
2023/12/02 01:17:42;;;;;;;3.20;3.00;;;;;;;2.95;nan;-23898.44;4973500;28;20264;-64
2023/12/02 01:20:09;;;;;;;5.20;4.27;;;;;;;3.01;nan;-23900.16;4973552;28;20173;-63
2023/12/02 01:22:35;;;;;;;5.10;3.57;;;;;;;2.80;nan;-23894.31;4973458;28;20240;-64
2023/12/02 01:25:00;;;;;;;2.83;2.60;;;;;;;2.77;nan;-23893.44;4973361;28;20312;-63
2023/12/02 01:27:26;;;;;;;3.70;2.97;;;;;;;2.87;nan;-23896.16;4972998;28;20174;-63
2023/12/02 01:29:51;;;;;;;2.40;2.30;;;;;;;2.64;nan;-23889.88;4973363;28;20205;-63
2023/12/02 01:32:17;;;;;;;6.43;3.47;;;;;;;2.82;nan;-23894.72;4973545;28;20187;-63
2023/12/02 01:34:42;;;;;;;3.53;3.23;;;;;;;2.57;nan;-23887.88;4973342;28;20180;-64
2023/12/02 01:37:08;;;;;;;4.77;3.33;;;;;;;2.55;nan;-23887.31;4973087;28;20227;-63
2023/12/02 01:39:33;;;;;;;3.50;3.20;;;;;;;2.83;nan;-23895.16;4973281;28;20176;-63
2023/12/02 01:41:59;;;;;;;4.27;3.57;;;;;;;2.84;nan;-23895.44;4972757;28;20154;-62
2023/12/02 01:44:24;;;;;;;3.60;3.03;;;;;;;2.85;nan;-23895.59;4972717;28;20181;-63
2023/12/02 01:46:49;;;;;;;4.20;3.40;;;;;;;2.67;nan;-23890.72;4973014;28;20192;-63
2023/12/02 01:49:16;;;;;;;5.33;3.10;;;;;;;2.84;nan;-23895.28;4972953;28;20268;-65
2023/12/02 01:51:41;;;;;;;2.90;2.70;;;;;;;2.80;nan;-23894.31;4973214;28;20324;-63
2023/12/02 01:54:08;;;;;;;4.27;3.87;;;;;;;2.80;nan;-23894.16;4973001;28;20362;-63
2023/12/02 01:56:33;;;;;;;3.20;2.90;;;;;;;2.84;nan;-23895.28;4955454;28;20699;-64
2023/12/02 01:59:00;;;;;;;3.50;2.90;;;;;;;2.76;nan;-23893.00;4972831;28;20177;-63
2023/12/02 02:01:25;;;;;;;4.00;3.30;;;;;;;2.71;nan;-23891.72;4973086;28;20212;-63
2023/12/02 02:03:51;;;;;;;3.77;2.50;;;;;;;2.37;nan;-23882.16;4972049;28;20649;-63
2023/12/02 02:06:17;;;;;;;2.67;2.47;;;;;;;2.70;nan;-23891.31;4956198;28;20184;-63
2023/12/02 02:08:43;;;;;;;3.93;2.73;;;;;;;2.56;nan;-23887.44;4972419;28;20177;-62
2023/12/02 02:11:08;;;;;;;3.73;2.73;;;;;;;2.57;nan;-23887.88;4955081;28;20191;-62
2023/12/02 02:13:33;;;;;;;4.13;3.60;;;;;;;2.32;nan;-23880.59;4972326;28;20178;-65
2023/12/02 02:15:59;;;;;;;2.87;2.67;;;;;;;2.46;nan;-23884.75;4972568;28;20192;-64
2023/12/02 02:18:24;;;;;;;4.27;3.87;;;;;;;2.65;nan;-23890.00;4972581;28;20177;-63
2023/12/02 02:20:51;;;;;;;3.13;2.60;;;;;;;2.84;nan;-23895.44;4965682;28;20182;-63
2023/12/02 02:23:21;;;;;;;6.10;3.87;;;;;;;2.57;nan;-23887.72;4952894;28;20752;-62
2023/12/02 02:25:50;;;;;;;2.90;2.60;;;;;;;2.56;nan;-23887.44;4953466;29;20193;-63
2023/12/02 02:28:21;;;;;;;2.77;2.57;;;;;;;2.58;nan;-23888.16;4952886;28;20275;-64
2023/12/02 02:30:46;;;;;;;2.20;2.10;;;;;;;2.58;nan;-23888.03;4953006;29;20189;-63
2023/12/02 02:33:12;;;;;;;7.43;4.23;;;;;;;2.56;nan;-23887.44;4953277;29;20171;-63
2023/12/02 02:35:38;;;;;;;2.60;2.40;;;;;;;2.66;nan;-23890.44;4952903;29;20178;-63
2023/12/02 02:38:03;;;;;;;2.47;2.27;;;;;;;2.59;nan;-23888.44;4951367;28;20189;-63
2023/12/02 02:40:29;;;;;;;5.57;3.43;;;;;;;2.10;nan;-23874.59;4935256;29;20186;-62
2023/12/02 02:42:54;;;;;;;4.03;2.87;;;;;;;2.52;nan;-23886.44;4952513;29;20280;-63
2023/12/02 02:45:20;;;;;;;3.47;2.73;;;;;;;2.53;nan;-23886.75;4952257;29;20232;-63
2023/12/02 02:47:45;;;;;;;2.10;1.97;;;;;;;2.59;nan;-23888.44;4952637;29;20170;-63
2023/12/02 02:50:10;;;;;;;4.27;3.20;;;;;;;2.88;nan;-23896.59;4952602;29;20506;-63
2023/12/02 02:52:36;;;;;;;3.43;3.13;;;;;;;2.97;nan;-23899.16;4952061;29;20616;-63
2023/12/02 02:55:01;;;;;;;3.27;2.97;;;;;;;2.84;nan;-23895.44;4952512;28;20224;-63
2023/12/02 02:57:27;;;;;;;5.73;4.07;;;;;;;2.69;nan;-23891.16;4952479;29;20609;-63
2023/12/02 02:59:52;;;;;;;2.43;2.23;;;;;;;2.87;nan;-23896.28;4952486;29;20708;-63
2023/12/02 03:02:18;;;;;;;3.10;2.83;;;;;;;2.72;nan;-23891.88;4952485;28;20212;-62
2023/12/02 03:04:43;;;;;;;2.57;2.37;;;;;;;2.70;nan;-23891.44;4952453;29;20248;-64
2023/12/02 03:07:08;;;;;;;2.53;2.23;;;;;;;2.79;nan;-23894.00;4935315;29;20182;-64
2023/12/02 03:09:34;;;;;;;4.60;2.70;;;;;;;2.81;nan;-23894.44;4953660;29;20205;-63
2023/12/02 03:11:59;;;;;;;2.47;2.27;;;;;;;2.85;nan;-23895.72;4935923;29;20196;-62
2023/12/02 03:14:25;;;;;;;2.27;2.17;;;;;;;2.80;nan;-23894.16;4952939;29;20261;-62
2023/12/02 03:16:50;;;;;;;2.33;2.17;;;;;;;2.94;nan;-23898.16;4955346;28;20186;-63
2023/12/02 03:19:18;;;;;;;2.20;2.00;;;;;;;2.91;nan;-23897.44;4956433;29;20210;-62
2023/12/02 03:21:44;;;;;;;1.83;1.73;;;;;;;2.81;nan;-23894.59;4955833;28;20619;-64
2023/12/02 03:24:09;;;;;;;2.40;2.30;;;;;;;2.76;nan;-23893.16;4956204;29;20208;-63
2023/12/02 03:26:36;;;;;;;4.80;3.40;;;;;;;3.06;nan;-23901.56;4956160;28;20642;-61
2023/12/02 03:29:02;;;;;;;2.57;2.37;;;;;;;2.87;nan;-23896.28;4956146;29;20700;-62
2023/12/02 03:31:27;;;;;;;1.97;1.83;;;;;;;3.26;nan;-23907.28;4955988;29;20269;-62
2023/12/02 03:33:53;;;;;;;2.00;1.90;;;;;;;3.05;nan;-23901.28;4955927;29;20198;-63
2023/12/02 03:36:18;;;;;;;1.77;1.67;;;;;;;2.86;nan;-23895.88;4955793;28;20178;-63
2023/12/02 03:38:44;;;;;;;3.37;2.23;;;;;;;2.85;nan;-23895.72;4956020;29;20618;-63
2023/12/02 03:41:09;;;;;;;2.70;2.50;;;;;;;2.99;nan;-23899.72;4956326;29;20313;-64
2023/12/02 03:43:35;;;;;;;3.27;2.73;;;;;;;3.02;nan;-23900.56;4955966;29;20346;-64
2023/12/02 03:46:02;;;;;;;2.00;1.90;;;;;;;2.75;nan;-23892.72;4956019;29;20556;-62
2023/12/02 03:48:27;;;;;;;2.73;1.97;;;;;;;3.05;nan;-23901.28;4955962;29;20185;-63
2023/12/02 03:50:53;;;;;;;1.87;1.77;;;;;;;2.85;nan;-23895.59;4955536;29;20177;-63
2023/12/02 03:53:18;;;;;;;2.53;2.33;;;;;;;2.98;nan;-23899.28;4955534;29;20202;-64
2023/12/02 03:55:44;;;;;;;2.33;2.20;;;;;;;2.73;nan;-23892.31;4955848;28;20180;-62
2023/12/02 03:58:10;;;;;;;3.40;3.10;;;;;;;2.78;nan;-23893.59;4956024;29;20265;-63
2023/12/02 04:00:35;;;;;;;2.90;2.57;;;;;;;2.81;nan;-23894.44;4955708;29;20181;-63
2023/12/02 04:03:01;;;;;;;4.17;2.43;;;;;;;3.00;nan;-23899.88;4955560;29;20229;-64
2023/12/02 04:05:26;;;;;;;3.03;2.83;;;;;;;3.16;nan;-23904.44;4955459;28;20170;-64
2023/12/02 04:07:53;;;;;;;6.10;3.50;;;;;;;;;;4955237;29;20175;-62
2023/12/02 04:10:18;;;;;;;4.50;3.07;;;;;;;2.88;nan;-23896.44;4956122;29;20250;-64
2023/12/02 04:12:44;;;;;;;2.47;2.27;;;;;;;2.86;nan;-23895.88;4956027;29;20560;-63
2023/12/02 04:15:10;;;;;;;5.60;3.07;;;;;;;2.88;nan;-23896.44;4955784;29;20213;-64
2023/12/02 04:17:35;;;;;;;2.30;2.17;;;;;;;2.97;nan;-23899.16;4955478;29;20202;-62
2023/12/02 04:20:08;;;;;;;3.30;2.47;;;;;;;3.00;nan;-23900.00;4955334;29;20189;-63
2023/12/02 04:22:34;;;;;;;4.40;3.53;;;;;;;2.92;nan;-23897.56;4955289;29;20260;-63
2023/12/02 04:24:59;;;;;;;2.87;2.67;;;;;;;2.92;nan;-23897.72;4955212;29;20206;-64
2023/12/02 04:27:25;;;;;;;3.13;2.73;;;;;;;2.84;nan;-23895.28;4954148;28;20210;-63
2023/12/02 04:29:50;;;;;;;2.30;2.13;;;;;;;3.06;nan;-23901.72;4955184;29;20177;-62
2023/12/02 04:32:15;;;;;;;3.23;2.93;;;;;;;2.74;nan;-23892.44;4954998;29;20209;-62
2023/12/02 04:34:41;;;;;;;2.43;2.30;;;;;;;3.01;nan;-23900.16;4955115;29;20673;-63
2023/12/02 04:37:06;;;;;;;3.43;3.00;;;;;;;2.83;nan;-23895.00;4937766;29;20286;-65
2023/12/02 04:39:32;;;;;;;2.43;2.27;;;;;;;2.92;nan;-23897.56;4954945;29;20261;-64
2023/12/02 04:41:57;;;;;;;3.80;2.40;;;;;;;2.95;nan;-23898.44;4954705;29;20170;-63
2023/12/02 04:44:23;;;;;;;2.43;2.33;;;;;;;2.77;nan;-23893.31;4954647;29;20217;-64
2023/12/02 04:46:48;;;;;;;3.17;2.90;;;;;;;2.95;nan;-23898.59;4954903;29;20177;-62
2023/12/02 04:49:13;;;;;;;4.20;3.40;;;;;;;3.03;nan;-23900.72;4954477;28;20264;-63
2023/12/02 04:51:39;;;;;;;2.37;2.17;;;;;;;2.58;nan;-23888.16;4954697;29;20560;-63
2023/12/02 04:54:04;;;;;;;3.90;2.67;;;;;;;2.72;nan;-23892.03;4954437;28;20248;-63
2023/12/02 04:56:30;;;;;;;4.27;3.47;;;;;;;2.49;nan;-23885.44;4954634;29;20186;-63
2023/12/02 04:58:56;;;;;;;2.60;2.40;;;;;;;2.63;nan;-23889.59;4954498;29;20668;-62
2023/12/02 05:01:21;;;;;;;2.17;2.07;;;;;;;2.65;nan;-23890.16;4937288;29;20186;-63
2023/12/02 05:03:46;;;;;;;3.40;3.10;;;;;;;2.63;nan;-23889.44;4954317;29;20198;-64
2023/12/02 05:06:17;;;;;;;3.03;2.83;;;;;;;2.34;nan;-23881.31;4954335;29;20246;-63
2023/12/02 05:08:44;;;;;;;3.87;3.20;;;;;;;2.60;nan;-23888.72;4954794;29;20257;-64
2023/12/02 05:11:16;;;;;;;5.43;2.80;;;;;;;2.48;nan;-23885.31;4954451;29;20643;-63
2023/12/02 05:13:41;;;;;;;2.40;2.23;;;;;;;2.19;nan;-23877.03;4954086;29;20189;-63
2023/12/02 05:16:07;;;;;;;2.27;2.17;;;;;;;2.03;nan;-23872.59;4954015;29;20213;-62
2023/12/02 05:18:32;;;;;;;2.33;2.23;;;;;;;2.34;nan;-23881.16;4954402;29;20182;-63
2023/12/02 05:20:58;;;;;;;1.90;1.80;;;;;;;2.32;nan;-23880.75;4954198;29;20601;-63
2023/12/02 05:23:23;;;;;;;3.37;3.07;;;;;;;2.30;nan;-23880.16;4953764;29;20265;-63
2023/12/02 05:25:49;;;;;;;3.97;3.33;;;;;;;2.17;nan;-23876.47;4953789;28;20260;-62
2023/12/02 05:28:14;;;;;;;2.27;2.17;;;;;;;2.05;nan;-23873.03;4953986;29;20264;-63
2023/12/02 05:30:40;;;;;;;2.80;2.60;;;;;;;2.01;nan;-23872.03;4954027;29;20190;-63
2023/12/02 05:33:05;;;;;;;2.83;2.53;;;;;;;1.93;nan;-23869.59;4953532;29;20265;-64
2023/12/02 05:35:31;;;;;;;3.30;3.00;;;;;;;2.13;nan;-23875.31;4953902;29;20261;-63
2023/12/02 05:37:57;;;;;;;2.47;2.27;;;;;;;1.97;nan;-23870.88;4953966;28;20180;-64
2023/12/02 05:40:22;;;;;;;3.20;2.90;;;;;;;2.12;nan;-23875.03;4935292;29;20765;-62
2023/12/02 05:42:48;;;;;;;2.60;2.00;;;;;;;1.95;nan;-23870.16;4953517;29;20194;-63
2023/12/02 05:45:13;;;;;;;3.17;2.67;;;;;;;2.23;nan;-23878.16;4953288;29;20182;-63
2023/12/02 05:47:39;;;;;;;4.33;3.47;;;;;;;1.93;nan;-23869.75;4953408;29;20254;-63
2023/12/02 05:50:05;;;;;;;5.40;3.90;;;;;;;2.05;nan;-23873.03;4954347;29;20200;-63
2023/12/02 05:52:31;;;;;;;6.43;4.20;;;;;;;2.14;nan;-23875.59;4953656;29;20256;-63
2023/12/02 05:54:56;;;;;;;2.73;2.53;;;;;;;2.31;nan;-23880.47;4953396;28;20700;-63
2023/12/02 05:57:22;;;;;;;1.67;1.57;;;;;;;2.43;nan;-23883.88;4951796;28;20252;-64
2023/12/02 05:59:47;;;;;;;4.27;2.80;;;;;;;2.44;nan;-23884.16;4953471;29;20178;-62
2023/12/02 06:02:12;;;;;;;4.90;2.80;;;;;;;2.10;nan;-23874.59;4952861;29;20174;-63
2023/12/02 06:04:38;;;;;;;3.03;2.70;;;;;;;2.41;nan;-23883.16;4953028;29;20236;-64
2023/12/02 06:07:03;;;;;;;2.27;2.07;;;;;;;2.52;nan;-23886.44;4952613;29;20555;-63
2023/12/02 06:09:29;;;;;;;2.50;1.70;;;;;;;2.68;nan;-23891.00;4935780;29;20216;-64
2023/12/02 06:11:54;;;;;;;3.67;2.53;;;;;;;2.59;nan;-23888.44;4952927;29;20501;-63
2023/12/02 06:14:20;;;;;;;6.40;3.33;;;;;;;2.61;nan;-23889.03;4951910;29;20260;-63
2023/12/02 06:16:46;;;;;;;2.67;2.47;;;;;;;2.68;nan;-23891.00;4950758;29;20205;-62
2023/12/02 06:19:11;;;;;;;3.10;2.40;;;;;;;2.97;nan;-23899.00;4951098;29;20205;-64
2023/12/02 06:21:37;;;;;;;1.90;1.70;;;;;;;2.97;nan;-23899.00;4942743;29;20181;-62
2023/12/02 06:24:04;;;;;;;2.47;2.27;;;;;;;2.67;nan;-23890.72;4941233;29;20209;-63
2023/12/02 06:26:29;;;;;;;2.17;1.97;;;;;;;2.99;nan;-23899.72;4947256;29;20174;-63
2023/12/02 06:28:55;;;;;;;2.80;2.60;;;;;;;2.91;nan;-23897.44;4951572;29;20181;-64
2023/12/02 06:31:20;;;;;;;2.53;2.43;;;;;;;2.96;nan;-23898.88;4952821;29;20662;-64
2023/12/02 06:33:46;;;;;;;2.30;2.20;;;;;;;3.19;nan;-23905.13;4952726;29;20237;-63
2023/12/02 06:36:12;;;;;;;4.23;2.70;;;;;;;3.29;nan;-23908.00;4952954;29;20701;-65
2023/12/02 06:38:37;;;;;;;2.23;2.03;;;;;;;3.60;nan;-23916.69;4952922;29;20265;-64
2023/12/02 06:41:03;;;;;;;3.33;2.87;;;;;;;3.34;nan;-23909.56;4947807;29;20229;-66
2023/12/02 06:43:28;;;;;;;2.43;1.90;;;;;;;3.53;nan;-23914.84;4943394;29;20228;-65
2023/12/02 06:45:54;;;;;;;2.37;2.17;;;;;;;3.67;nan;-23918.81;4942007;29;20266;-64
2023/12/02 06:48:19;;;;;;;4.60;2.80;;;;;;;3.62;nan;-23917.25;4942599;29;20185;-63
2023/12/02 06:50:45;;;;;;;2.50;2.30;;;;;;;3.79;nan;-23922.09;4945635;29;20174;-64
2023/12/02 06:53:13;;;;;;;3.87;3.27;;;;;;;3.92;nan;-23925.81;4957094;28;20194;-64
2023/12/02 06:55:39;;;;;;;2.67;2.43;;;;;;;3.82;nan;-23923.09;4954328;29;20224;-63
2023/12/02 06:58:04;;;;;;;3.30;2.30;;;;;;;4.00;nan;-23928.09;4954387;28;20727;-63
2023/12/02 07:00:30;;;;;;;2.60;2.40;;;;;;;3.84;nan;-23923.53;4957851;29;20573;-63
2023/12/02 07:02:55;;;;;;;2.60;2.40;;;;;;;4.10;nan;-23930.94;4958208;29;20194;-65
2023/12/02 07:05:20;;;;;;;3.10;2.57;;;;;;;4.20;nan;-23933.63;4958242;28;20201;-65
2023/12/02 07:07:46;;;;;;;2.63;2.43;;;;;;;4.27;nan;-23935.78;4957899;28;20238;-64
2023/12/02 07:10:13;;;;;;;3.03;2.23;;;;;;;4.38;nan;-23938.91;4957581;28;20189;-65
2023/12/02 07:12:38;;;;;;;3.97;2.73;;;;;;;4.43;nan;-23940.34;4955611;29;20278;-65
2023/12/02 07:15:07;;;;;;;4.37;2.70;;;;;;;4.32;nan;-23937.06;4958019;29;20182;-65
2023/12/02 07:17:32;;;;;;;2.47;2.27;;;;;;;4.54;nan;-23943.19;4958116;29;20190;-64
2023/12/02 07:19:58;;;;;;;2.23;2.03;;;;;;;4.63;nan;-23945.88;4958742;29;20162;-64
2023/12/02 07:22:24;;;;;;;2.43;2.27;;;;;;;4.53;nan;-23942.91;4957436;29;20205;-64
2023/12/02 07:24:49;;;;;;;3.97;3.03;;;;;;;4.75;nan;-23949.31;4959024;29;20182;-65
2023/12/02 07:27:15;;;;;;;2.60;2.40;;;;;;;4.33;nan;-23937.47;4958764;28;20181;-64
2023/12/02 07:29:40;;;;;;;2.33;2.13;;;;;;;4.42;nan;-23940.03;4958218;28;20574;-65
2023/12/02 07:32:06;;;;;;;3.53;2.67;;;;;;;4.64;nan;-23946.03;4958580;28;20193;-63
2023/12/02 07:34:31;;;;;;;2.30;1.83;;;;;;;4.74;nan;-23948.88;4941104;29;20185;-64
2023/12/02 07:36:57;;;;;;;2.27;1.93;;;;;;;4.73;nan;-23948.72;4958701;29;20182;-64
2023/12/02 07:39:22;;;;;;;3.63;2.67;;;;;;;4.87;nan;-23952.56;4958417;28;20185;-65
2023/12/02 07:41:49;;;;;;;2.77;2.57;;;;;;;4.86;nan;-23952.44;4958387;29;20537;-66
2023/12/02 07:44:17;;;;;;;2.23;2.10;;;;;;;4.80;nan;-23950.72;4958187;29;20740;-64
2023/12/02 07:46:42;;;;;;;1.83;1.73;;;;;;;4.66;nan;-23946.75;4958657;29;20169;-64
2023/12/02 07:49:08;;;;;;;3.00;2.80;;;;;;;4.96;nan;-23955.00;4958562;28;20174;-63
2023/12/02 07:51:34;;;;;;;2.10;1.93;;;;;;;4.98;nan;-23955.69;4958831;29;20162;-64
2023/12/02 07:53:59;;;;;;;3.23;2.43;;;;;;;5.12;nan;-23959.53;4958451;28;20627;-64
2023/12/02 07:56:25;;;;;;;2.43;2.23;;;;;;;4.99;nan;-23956.00;4958355;28;20188;-64
2023/12/02 07:58:50;;;;;;;3.20;2.57;;;;;;;4.89;nan;-23953.28;4958298;28;20191;-66
2023/12/02 08:01:16;;;;;;;2.03;1.90;;;;;;;4.87;nan;-23952.72;4958240;28;20264;-64
2023/12/02 08:03:41;;;;;;;3.03;2.83;;;;;;;5.08;nan;-23958.41;4954393;29;20606;-65
2023/12/02 08:06:07;;;;;;;2.20;2.03;;;;;;;5.00;nan;-23956.13;4955377;29;20170;-65
2023/12/02 08:08:32;;;;;;;2.03;1.90;;;;;;;5.12;nan;-23959.69;4955347;29;20178;-63
2023/12/02 08:10:58;;;;;;;2.33;2.00;;;;;;;5.14;nan;-23960.25;4955650;29;20174;-64
2023/12/02 08:13:23;;;;;;;3.23;2.93;;;;;;;5.10;nan;-23959.13;4955139;29;20213;-64
2023/12/02 08:15:49;;;;;;;3.17;2.13;;;;;;;5.07;nan;-23958.25;4954584;29;20201;-66
2023/12/02 08:18:18;;;;;;;2.03;1.87;;;;;;;5.14;nan;-23960.09;4954954;28;20187;-64
2023/12/02 08:20:44;;;;;;;5.17;3.27;;;;;;;4.87;nan;-23952.56;4954436;28;20224;-64
2023/12/02 08:23:09;;;;;;;4.20;3.20;;;;;;;4.94;nan;-23954.41;4954714;29;20229;-63
2023/12/02 08:25:35;;;;;;;2.63;2.40;;;;;;;5.19;nan;-23961.66;4955197;29;20206;-66
2023/12/02 08:28:00;;;;;;;4.50;3.23;;;;;;;5.22;nan;-23962.38;4954523;28;20185;-63
2023/12/02 08:30:25;;;;;;;1.93;1.83;;;;;;;5.25;nan;-23963.38;4954883;29;20611;-64
2023/12/02 08:32:51;;;;;;;4.63;2.67;;;;;;;5.38;nan;-23966.94;4954763;29;20178;-63
2023/12/02 08:35:16;;;;;;;2.67;2.47;;;;;;;5.48;nan;-23969.63;4954717;28;20170;-63
2023/12/02 08:37:42;;;;;;;2.57;2.40;;;;;;;5.25;nan;-23963.38;4954364;29;20174;-64
2023/12/02 08:40:08;;;;;;;3.60;2.53;;;;;;;5.41;nan;-23967.66;4954640;29;20317;-65
2023/12/02 08:42:33;;;;;;;2.40;2.20;;;;;;;5.46;nan;-23969.06;4954455;29;20289;-63
2023/12/02 08:44:58;;;;;;;3.27;2.97;;;;;;;5.59;nan;-23972.91;4959977;28;20185;-64
2023/12/02 08:47:24;;;;;;;3.60;2.90;;;;;;;5.66;nan;-23974.75;4973745;28;20220;-64
2023/12/02 08:49:49;;;;;;;4.77;3.23;;;;;;;5.70;nan;-23975.88;4973804;28;20590;-65
2023/12/02 08:52:15;;;;;;;6.17;3.13;;;;;;;5.73;nan;-23976.88;4973753;28;20172;-63
2023/12/02 08:54:40;;;;;;;2.87;2.67;;;;;;;5.81;nan;-23978.88;4973662;28;20220;-67
2023/12/02 08:57:05;;;;;;;5.10;3.50;;;;;;;5.98;nan;-23983.84;4973645;28;20173;-65
2023/12/02 08:59:31;;;;;;;3.43;2.73;;;;;;;5.87;nan;-23980.72;4973163;28;20177;-64
2023/12/02 09:01:56;;;;;;;3.17;2.73;;;;;;;5.91;nan;-23981.72;4973677;28;20336;-64
2023/12/02 09:04:21;;;;;;;3.03;2.63;;;;;;;5.78;nan;-23978.16;4973416;28;20212;-65
2023/12/02 09:06:47;;;;;;;2.47;2.27;;;;;;;6.04;nan;-23985.41;4973274;28;20189;-64
2023/12/02 09:09:14;;;;;;;1.90;1.73;;;;;;;6.01;nan;-23984.56;4973189;28;20188;-64
2023/12/02 09:11:41;;;;;;;3.03;2.73;;;;;;;6.09;nan;-23986.84;4972986;28;20556;-64
2023/12/02 09:14:06;;;;;;;2.57;2.37;;;;;;;6.24;nan;-23990.94;4955291;28;20213;-64
2023/12/02 09:16:32;;;;;;;2.63;2.40;;;;;;;6.12;nan;-23987.81;4973430;28;20220;-64
2023/12/02 09:18:57;;;;;;;3.20;2.90;;;;;;;6.43;nan;-23996.50;4955711;28;20181;-63
2023/12/02 09:21:41;;;;;;;2.37;2.20;;;;;;;6.61;nan;-24001.59;4972848;28;20524;-64
2023/12/02 09:24:33;;;;;;;2.83;2.37;;;;;;;6.70;nan;-24004.00;4973152;28;20216;-65
2023/12/02 09:26:59;;;;;;;3.53;2.93;;;;;;;6.60;nan;-24001.31;4973315;28;20172;-65
2023/12/02 09:29:31;;;;;;;5.43;2.73;;;;;;;6.92;nan;-24010.13;4974070;28;20185;-64
2023/12/02 09:31:56;;;;;;;2.40;1.97;;;;;;;5.20;nan;-23961.81;4972837;28;20224;-64
2023/12/02 09:34:40;;;;;;;2.10;1.90;;;;;;;7.02;nan;-24012.94;4972627;28;20190;-64
2023/12/02 09:37:18;;;;;;;2.77;2.57;;;;;;;7.22;nan;-24018.63;4973390;28;20201;-65
2023/12/02 09:40:25;;;;;;;4.23;2.57;;;;;;;7.04;nan;-24013.66;4973098;28;20216;-65
2023/12/02 09:42:54;;;;;;;2.97;2.67;;;;;;;7.24;nan;-24019.03;4972941;28;20295;-65
2023/12/02 09:45:32;;;;;;;3.07;2.73;;;;;;;7.41;nan;-24024.00;4972850;28;20174;-64
2023/12/02 09:48:24;;;;;;;3.10;2.80;;;;;;;7.60;nan;-24029.09;4972686;28;20579;-64
2023/12/02 09:51:02;;;;;;;3.67;3.37;;;;;;;7.53;nan;-24027.28;4973005;28;20168;-64
2023/12/02 09:53:30;;;;;;;3.40;3.17;;;;;;;7.56;nan;-24028.13;4972103;28;20173;-64
2023/12/02 09:56:00;;;;;;;3.57;3.27;;;;;;;7.46;nan;-24025.44;4972913;28;20170;-63
2023/12/02 09:58:47;;;;;;;3.47;2.90;;;;;;;7.60;nan;-24029.25;4972679;28;20272;-65
2023/12/02 10:01:30;;;;;;;4.10;3.37;;;;;;;7.53;nan;-24027.28;4972418;28;20185;-65
2023/12/02 10:04:10;;;;;;;3.27;2.83;;;;;;;7.42;nan;-24024.16;4971926;28;20744;-64
2023/12/02 10:07:14;;;;;;;3.53;2.67;;;;;;;7.61;nan;-24029.53;4961142;28;20181;-65
2023/12/02 10:09:53;;;;;;;2.70;2.50;;;;;;;7.69;nan;-24031.81;4952847;29;20265;-65
2023/12/02 10:12:40;;;;;;;6.23;3.17;;;;;;;7.50;nan;-24026.41;4952913;29;20170;-64
2023/12/02 10:15:09;;;;;;;5.23;3.63;;;;;;;7.85;nan;-24036.19;4952913;29;20181;-65
2023/12/02 10:17:42;;;;;;;3.43;2.77;;;;;;;7.71;nan;-24032.38;4953026;29;20597;-66
2023/12/02 10:20:12;;;;;;;2.38;2.17;;;;;;;7.87;nan;-24036.91;4953001;29;20174;-64
2023/12/02 10:22:44;;;;;;;7.97;4.07;;;;;;;7.93;nan;-24038.47;4952907;29;20190;-64
2023/12/02 10:25:33;;;;;;;2.73;2.53;;;;;;;7.99;nan;-24040.16;4953000;28;20170;-64
2023/12/02 10:28:13;;;;;;;3.78;3.08;;;;;;;8.11;nan;-24043.41;4952833;29;20214;-63
2023/12/02 10:30:46;;;;;;;3.55;3.13;;;;;;;8.03;nan;-24041.16;4953328;29;20169;-63
2023/12/02 10:33:26;;;;;;;5.45;3.83;;;;;;;8.23;nan;-24046.97;4952960;29;20541;-63
2023/12/02 10:36:02;;;;;;;4.07;2.85;;;;;;;8.30;nan;-24048.81;4952706;29;20204;-64
2023/12/02 10:38:44;;;;;;;3.28;2.97;;;;;;;8.13;nan;-24044.13;4950527;29;20952;-64
2023/12/02 10:41:16;;;;;;;3.75;3.10;;;;;;;8.25;nan;-24047.38;4951902;29;20249;-63
2023/12/02 10:43:44;;;;;;;6.00;3.35;;;;;;;8.43;nan;-24052.47;4952072;29;20212;-64
2023/12/02 10:46:11;;;;;;;2.95;2.63;;;;;;;8.36;nan;-24050.66;4952421;28;20201;-64
2023/12/02 10:48:39;;;;;;;4.07;3.72;;;;;;;8.61;nan;-24057.56;4952212;29;20233;-65
2023/12/02 10:51:06;;;;;;;3.45;3.10;;;;;;;8.64;nan;-24058.28;4951738;29;20541;-65
2023/12/02 10:53:34;;;;;;;3.08;2.78;;;;;;;8.49;nan;-24054.03;4951820;29;20556;-64
2023/12/02 10:56:05;;;;;;;3.33;2.58;;;;;;;8.86;nan;-24064.50;4965298;28;20483;-64
2023/12/02 10:58:31;;;;;;;3.50;3.10;;;;;;;8.83;nan;-24063.81;4971852;28;20166;-65
2023/12/02 11:01:04;;;;;;;4.70;3.05;;;;;;;8.79;nan;-24062.53;4971508;28;20637;-65
2023/12/02 11:03:57;;;;;;;3.40;2.35;;;;;;;8.83;nan;-24063.81;4971668;28;20248;-63
2023/12/02 11:06:32;;;;;;;2.85;2.65;;;;;;;8.81;nan;-24063.25;4953205;28;20216;-65
2023/12/02 11:09:16;;;;;;;2.80;2.58;;;;;;;8.88;nan;-24064.94;4969233;28;20836;-62
2023/12/02 11:11:44;;;;;;;2.85;2.35;;;;;;;9.06;nan;-24070.03;4935226;28;20186;-63
2023/12/02 11:14:18;;;;;;;2.95;2.75;;;;;;;9.26;nan;-24075.81;4931539;29;20175;-64
2023/12/02 11:17:06;;;;;;;4.15;3.17;;;;;;;9.62;nan;-24085.84;4931369;29;20254;-63
2023/12/02 11:19:40;;;;;;;3.88;3.45;;;;;;;9.76;nan;-24087.81;4931951;29;20597;-63
2023/12/02 11:22:34;;;;;;;8.20;2.72;;;;;;;9.88;nan;-24092.91;4932280;29;20178;-62
2023/12/02 11:25:18;;;;;;;4.85;3.45;;;;;;;10.08;nan;-24098.56;4933715;29;20707;-65
2023/12/02 11:27:54;;;;;;;6.93;2.85;;;;;;;9.86;nan;-24090.63;4933553;29;20533;-63
2023/12/02 11:30:25;;;;;;;4.82;2.88;;;;;;;10.00;nan;-24096.31;4933882;29;20178;-64
2023/12/02 11:33:12;;;;;;;3.17;2.80;;;;;;;10.23;nan;-24102.66;4933686;29;20175;-64
2023/12/02 11:36:14;;;;;;;3.13;2.85;;;;;;;10.41;nan;-24107.88;4934103;29;20182;-65
2023/12/02 11:39:01;;;;;;;3.78;3.10;;;;;;;10.74;nan;-23477.75;4922361;29;20674;-64
2023/12/02 11:41:51;;;;;;;7.35;3.85;;;;;;;10.71;nan;-23158.16;4936839;29;20187;-64
2023/12/02 11:44:43;;;;;;;7.57;4.65;;;;;;;10.79;nan;-22841.34;4936740;29;20242;-64
2023/12/02 11:47:27;;;;;;;3.90;3.22;;;;;;;11.19;nan;-22532.59;4936875;29;20179;-63
2023/12/02 11:50:11;;;;;;;5.45;3.72;;;;;;;11.24;nan;-21257.31;4936708;29;20178;-65
2023/12/02 11:52:58;;;;;;;3.03;2.83;;;;;;;11.49;nan;-21582.53;4936426;29;20189;-63
2023/12/02 11:55:37;;;;;;;4.22;2.63;;;;;;;11.31;nan;-19981.50;4936489;29;20299;-64